sensor_id;sensor_type;location;lat;lon;timestamp;temperature;humidity
39401;SHT31;75540;50.000;7.360;2024-01-11T00:00:02;-5.28;72.69
39401;SHT31;75540;50.000;7.360;2024-01-11T00:02:30;-5.18;72.47
39401;SHT31;75540;50.000;7.360;2024-01-11T00:04:58;-5.21;72.68
39401;SHT31;75540;50.000;7.360;2024-01-11T00:07:26;-5.12;72.70
39401;SHT31;75540;50.000;7.360;2024-01-11T00:09:54;-4.90;72.10
39401;SHT31;75540;50.000;7.360;2024-01-11T00:12:23;-4.94;71.93
39401;SHT31;75540;50.000;7.360;2024-01-11T00:14:52;-5.00;72.23
39401;SHT31;75540;50.000;7.360;2024-01-11T00:17:26;-5.00;72.16
39401;SHT31;75540;50.000;7.360;2024-01-11T00:19:54;-5.18;72.37
39401;SHT31;75540;50.000;7.360;2024-01-11T00:22:22;-5.21;72.72
39401;SHT31;75540;50.000;7.360;2024-01-11T00:24:51;-5.30;72.72
39401;SHT31;75540;50.000;7.360;2024-01-11T00:27:19;-5.41;72.96
39401;SHT31;75540;50.000;7.360;2024-01-11T00:29:47;-5.45;73.47
39401;SHT31;75540;50.000;7.360;2024-01-11T00:32:17;-5.42;73.49
39401;SHT31;75540;50.000;7.360;2024-01-11T00:34:45;-5.58;73.93
39401;SHT31;75540;50.000;7.360;2024-01-11T00:37:13;-5.59;74.25
39401;SHT31;75540;50.000;7.360;2024-01-11T00:39:42;-5.59;74.11
39401;SHT31;75540;50.000;7.360;2024-01-11T00:42:10;-5.65;74.25
39401;SHT31;75540;50.000;7.360;2024-01-11T00:44:38;-5.55;73.98
39401;SHT31;75540;50.000;7.360;2024-01-11T00:47:07;-5.62;74.24
39401;SHT31;75540;50.000;7.360;2024-01-11T00:49:36;-5.63;74.04
39401;SHT31;75540;50.000;7.360;2024-01-11T00:52:05;-5.58;74.11
39401;SHT31;75540;50.000;7.360;2024-01-11T00:54:33;-5.69;74.36
39401;SHT31;75540;50.000;7.360;2024-01-11T00:57:01;-5.62;74.43
39401;SHT31;75540;50.000;7.360;2024-01-11T00:59:30;-5.52;74.28
39401;SHT31;75540;50.000;7.360;2024-01-11T01:01:58;-5.52;74.39
39401;SHT31;75540;50.000;7.360;2024-01-11T01:04:26;-5.48;74.44
39401;SHT31;75540;50.000;7.360;2024-01-11T01:06:56;-5.43;74.58
39401;SHT31;75540;50.000;7.360;2024-01-11T01:09:24;-5.31;74.27
39401;SHT31;75540;50.000;7.360;2024-01-11T01:11:52;-5.30;74.38
39401;SHT31;75540;50.000;7.360;2024-01-11T01:14:20;-5.20;74.26
39401;SHT31;75540;50.000;7.360;2024-01-11T01:16:48;-5.12;74.12
39401;SHT31;75540;50.000;7.360;2024-01-11T01:19:16;-5.12;73.81
39401;SHT31;75540;50.000;7.360;2024-01-11T01:21:45;-5.08;73.98
39401;SHT31;75540;50.000;7.360;2024-01-11T01:24:14;-5.04;73.79
39401;SHT31;75540;50.000;7.360;2024-01-11T01:26:42;-5.14;73.71
39401;SHT31;75540;50.000;7.360;2024-01-11T01:29:11;-5.18;73.83
39401;SHT31;75540;50.000;7.360;2024-01-11T01:31:39;-5.18;73.93
39401;SHT31;75540;50.000;7.360;2024-01-11T01:34:07;-5.11;73.99
39401;SHT31;75540;50.000;7.360;2024-01-11T01:36:36;-5.05;73.65
39401;SHT31;75540;50.000;7.360;2024-01-11T01:39:04;-4.96;73.62
39401;SHT31;75540;50.000;7.360;2024-01-11T01:41:34;-4.97;73.46
39401;SHT31;75540;50.000;7.360;2024-01-11T01:44:02;-5.10;73.89
39401;SHT31;75540;50.000;7.360;2024-01-11T01:46:30;-5.14;74.23
39401;SHT31;75540;50.000;7.360;2024-01-11T01:49:01;-5.11;74.31
39401;SHT31;75540;50.000;7.360;2024-01-11T01:51:30;-5.14;74.47
39401;SHT31;75540;50.000;7.360;2024-01-11T01:54:00;-5.04;74.33
39401;SHT31;75540;50.000;7.360;2024-01-11T01:56:30;-5.07;74.58
39401;SHT31;75540;50.000;7.360;2024-01-11T01:59:01;-5.05;74.56
39401;SHT31;75540;50.000;7.360;2024-01-11T02:01:30;-4.96;74.48
39401;SHT31;75540;50.000;7.360;2024-01-11T02:03:58;-4.96;74.28
39401;SHT31;75540;50.000;7.360;2024-01-11T02:06:28;-4.93;74.27
39401;SHT31;75540;50.000;7.360;2024-01-11T02:08:59;-4.88;74.28
39401;SHT31;75540;50.000;7.360;2024-01-11T02:11:28;-4.80;74.02
39401;SHT31;75540;50.000;7.360;2024-01-11T02:13:56;-4.76;73.81
39401;SHT31;75540;50.000;7.360;2024-01-11T02:16:26;-4.79;73.84
39401;SHT31;75540;50.000;7.360;2024-01-11T02:18:54;-4.80;74.08
39401;SHT31;75540;50.000;7.360;2024-01-11T02:21:23;-4.86;74.15
39401;SHT31;75540;50.000;7.360;2024-01-11T02:24:01;-4.77;74.03
39401;SHT31;75540;50.000;7.360;2024-01-11T02:26:30;-4.73;73.95
39401;SHT31;75540;50.000;7.360;2024-01-11T02:28:58;-4.73;73.76
39401;SHT31;75540;50.000;7.360;2024-01-11T02:31:26;-4.72;73.69
39401;SHT31;75540;50.000;7.360;2024-01-11T02:33:55;-4.79;73.78
39401;SHT31;75540;50.000;7.360;2024-01-11T02:36:25;-4.80;73.85
39401;SHT31;75540;50.000;7.360;2024-01-11T02:38:53;-4.79;73.87
39401;SHT31;75540;50.000;7.360;2024-01-11T02:41:23;-4.73;73.74
39401;SHT31;75540;50.000;7.360;2024-01-11T02:43:52;-4.75;73.59
39401;SHT31;75540;50.000;7.360;2024-01-11T02:46:21;-4.83;73.55
39401;SHT31;75540;50.000;7.360;2024-01-11T02:48:49;-4.80;73.98
39401;SHT31;75540;50.000;7.360;2024-01-11T02:51:19;-4.73;73.58
39401;SHT31;75540;50.000;7.360;2024-01-11T02:53:47;-4.94;74.12
39401;SHT31;75540;50.000;7.360;2024-01-11T02:56:15;-5.00;74.31
39401;SHT31;75540;50.000;7.360;2024-01-11T02:58:45;-4.96;74.52
39401;SHT31;75540;50.000;7.360;2024-01-11T03:01:13;-5.07;74.81
39401;SHT31;75540;50.000;7.360;2024-01-11T03:03:41;-5.17;74.97
39401;SHT31;75540;50.000;7.360;2024-01-11T03:06:10;-5.27;75.24
39401;SHT31;75540;50.000;7.360;2024-01-11T03:08:38;-5.32;75.70
39401;SHT31;75540;50.000;7.360;2024-01-11T03:11:06;-5.41;75.63
39401;SHT31;75540;50.000;7.360;2024-01-11T03:13:34;-5.38;75.86
39401;SHT31;75540;50.000;7.360;2024-01-11T03:16:05;-5.36;75.93
39401;SHT31;75540;50.000;7.360;2024-01-11T03:18:33;-5.31;75.77
39401;SHT31;75540;50.000;7.360;2024-01-11T03:21:01;-5.41;76.20
39401;SHT31;75540;50.000;7.360;2024-01-11T03:23:29;-5.32;76.09
39401;SHT31;75540;50.000;7.360;2024-01-11T03:25:58;-5.21;75.55
39401;SHT31;75540;50.000;7.360;2024-01-11T03:28:26;-5.28;75.57
39401;SHT31;75540;50.000;7.360;2024-01-11T03:30:54;-5.28;76.03
39401;SHT31;75540;50.000;7.360;2024-01-11T03:33:23;-5.39;76.27
39401;SHT31;75540;50.000;7.360;2024-01-11T03:35:51;-5.43;76.32
39401;SHT31;75540;50.000;7.360;2024-01-11T03:38:20;-5.43;76.69
39401;SHT31;75540;50.000;7.360;2024-01-11T03:40:48;-5.41;76.95
39401;SHT31;75540;50.000;7.360;2024-01-11T03:43:17;-5.48;76.98
39401;SHT31;75540;50.000;7.360;2024-01-11T03:45:45;-5.43;77.08
39401;SHT31;75540;50.000;7.360;2024-01-11T03:48:13;-5.42;77.20
39401;SHT31;75540;50.000;7.360;2024-01-11T03:50:43;-5.39;77.16
39401;SHT31;75540;50.000;7.360;2024-01-11T03:53:11;-5.47;77.20
39401;SHT31;75540;50.000;7.360;2024-01-11T03:55:40;-5.42;76.72
39401;SHT31;75540;50.000;7.360;2024-01-11T03:58:08;-5.32;76.98
39401;SHT31;75540;50.000;7.360;2024-01-11T04:00:36;-5.32;76.90
39401;SHT31;75540;50.000;7.360;2024-01-11T04:03:06;-5.22;76.68
39401;SHT31;75540;50.000;7.360;2024-01-11T04:05:34;-5.18;76.43
39401;SHT31;75540;50.000;7.360;2024-01-11T04:08:05;-5.05;76.14
39401;SHT31;75540;50.000;7.360;2024-01-11T04:10:34;-4.93;75.73
39401;SHT31;75540;50.000;7.360;2024-01-11T04:13:02;-4.91;75.19
39401;SHT31;75540;50.000;7.360;2024-01-11T04:15:30;-4.86;75.21
39401;SHT31;75540;50.000;7.360;2024-01-11T04:17:59;-4.80;75.03
39401;SHT31;75540;50.000;7.360;2024-01-11T04:20:28;-4.83;74.83
39401;SHT31;75540;50.000;7.360;2024-01-11T04:22:56;-4.90;75.24
39401;SHT31;75540;50.000;7.360;2024-01-11T04:25:25;-4.91;75.30
39401;SHT31;75540;50.000;7.360;2024-01-11T04:27:54;-4.91;75.39
39401;SHT31;75540;50.000;7.360;2024-01-11T04:30:22;-4.90;75.27
39401;SHT31;75540;50.000;7.360;2024-01-11T04:32:50;-4.77;75.09
39401;SHT31;75540;50.000;7.360;2024-01-11T04:35:18;-4.87;75.09
39401;SHT31;75540;50.000;7.360;2024-01-11T04:37:46;-4.79;75.05
39401;SHT31;75540;50.000;7.360;2024-01-11T04:40:15;-4.93;75.16
39401;SHT31;75540;50.000;7.360;2024-01-11T04:42:44;-4.93;75.29
39401;SHT31;75540;50.000;7.360;2024-01-11T04:45:12;-5.00;75.58
39401;SHT31;75540;50.000;7.360;2024-01-11T04:47:41;-5.04;75.74
39401;SHT31;75540;50.000;7.360;2024-01-11T04:50:09;-4.96;75.48
39401;SHT31;75540;50.000;7.360;2024-01-11T04:52:37;-5.03;75.67
39401;SHT31;75540;50.000;7.360;2024-01-11T04:55:06;-5.05;75.65
39401;SHT31;75540;50.000;7.360;2024-01-11T04:57:34;-5.10;75.88
39401;SHT31;75540;50.000;7.360;2024-01-11T05:00:05;-4.94;75.58
39401;SHT31;75540;50.000;7.360;2024-01-11T05:02:34;-5.04;75.76
39401;SHT31;75540;50.000;7.360;2024-01-11T05:05:02;-5.00;75.55
39401;SHT31;75540;50.000;7.360;2024-01-11T05:07:31;-5.03;75.65
39401;SHT31;75540;50.000;7.360;2024-01-11T05:10:01;-4.94;75.54
39401;SHT31;75540;50.000;7.360;2024-01-11T05:12:29;-4.94;75.45
39401;SHT31;75540;50.000;7.360;2024-01-11T05:14:57;-5.01;75.59
39401;SHT31;75540;50.000;7.360;2024-01-11T05:17:27;-5.07;75.88
39401;SHT31;75540;50.000;7.360;2024-01-11T05:19:54;-5.00;75.75
39401;SHT31;75540;50.000;7.360;2024-01-11T05:22:23;-5.10;75.83
39401;SHT31;75540;50.000;7.360;2024-01-11T05:24:51;-5.15;75.81
39401;SHT31;75540;50.000;7.360;2024-01-11T05:27:19;-5.14;76.02
39401;SHT31;75540;50.000;7.360;2024-01-11T05:29:47;-5.18;76.24
39401;SHT31;75540;50.000;7.360;2024-01-11T05:32:15;-5.28;76.46
39401;SHT31;75540;50.000;7.360;2024-01-11T05:34:45;-5.39;76.75
39401;SHT31;75540;50.000;7.360;2024-01-11T05:37:13;-5.47;77.11
39401;SHT31;75540;50.000;7.360;2024-01-11T05:39:41;-5.48;77.31
39401;SHT31;75540;50.000;7.360;2024-01-11T05:42:09;-5.45;77.36
39401;SHT31;75540;50.000;7.360;2024-01-11T05:44:37;-5.25;76.90
39401;SHT31;75540;50.000;7.360;2024-01-11T05:47:06;-5.14;76.34
39401;SHT31;75540;50.000;7.360;2024-01-11T05:49:34;-5.07;76.02
39401;SHT31;75540;50.000;7.360;2024-01-11T05:52:04;-5.11;76.20
39401;SHT31;75540;50.000;7.360;2024-01-11T05:54:32;-5.08;76.11
39401;SHT31;75540;50.000;7.360;2024-01-11T05:57:01;-5.15;76.16
39401;SHT31;75540;50.000;7.360;2024-01-11T05:59:29;-5.01;75.87
39401;SHT31;75540;50.000;7.360;2024-01-11T06:01:57;-4.96;75.64
39401;SHT31;75540;50.000;7.360;2024-01-11T06:04:27;-4.93;75.83
39401;SHT31;75540;50.000;7.360;2024-01-11T06:06:55;-5.01;75.81
39401;SHT31;75540;50.000;7.360;2024-01-11T06:09:25;-5.15;76.26
39401;SHT31;75540;50.000;7.360;2024-01-11T06:11:54;-5.15;76.25
39401;SHT31;75540;50.000;7.360;2024-01-11T06:14:22;-5.31;76.24
39401;SHT31;75540;50.000;7.360;2024-01-11T06:16:50;-5.52;77.05
39401;SHT31;75540;50.000;7.360;2024-01-11T06:19:18;-5.45;76.73
39401;SHT31;75540;50.000;7.360;2024-01-11T06:21:46;-5.58;77.07
39401;SHT31;75540;50.000;7.360;2024-01-11T06:24:15;-5.59;77.28
39401;SHT31;75540;50.000;7.360;2024-01-11T06:26:44;-5.66;77.40
39401;SHT31;75540;50.000;7.360;2024-01-11T06:29:12;-5.71;77.32
39401;SHT31;75540;50.000;7.360;2024-01-11T06:31:41;-5.81;77.77
39401;SHT31;75540;50.000;7.360;2024-01-11T06:34:09;-5.82;77.79
39401;SHT31;75540;50.000;7.360;2024-01-11T06:36:37;-5.79;77.92
39401;SHT31;75540;50.000;7.360;2024-01-11T06:39:05;-5.72;77.72
39401;SHT31;75540;50.000;7.360;2024-01-11T06:41:34;-5.65;77.51
39401;SHT31;75540;50.000;7.360;2024-01-11T06:44:03;-5.71;77.65
39401;SHT31;75540;50.000;7.360;2024-01-11T06:46:32;-5.69;77.59
39401;SHT31;75540;50.000;7.360;2024-01-11T06:49:00;-5.69;77.66
39401;SHT31;75540;50.000;7.360;2024-01-11T06:51:28;-5.71;77.90
39401;SHT31;75540;50.000;7.360;2024-01-11T06:53:56;-5.59;77.89
39401;SHT31;75540;50.000;7.360;2024-01-11T06:56:27;-5.47;77.86
39401;SHT31;75540;50.000;7.360;2024-01-11T06:58:55;-5.36;77.20
39401;SHT31;75540;50.000;7.360;2024-01-11T07:01:25;-5.38;76.97
39401;SHT31;75540;50.000;7.360;2024-01-11T07:03:53;-5.38;76.86
39401;SHT31;75540;50.000;7.360;2024-01-11T07:06:21;-5.41;77.13
39401;SHT31;75540;50.000;7.360;2024-01-11T07:08:49;-5.25;76.82
39401;SHT31;75540;50.000;7.360;2024-01-11T07:11:17;-5.25;76.81
39401;SHT31;75540;50.000;7.360;2024-01-11T07:13:46;-5.27;76.96
39401;SHT31;75540;50.000;7.360;2024-01-11T07:16:14;-5.17;77.09
39401;SHT31;75540;50.000;7.360;2024-01-11T07:18:44;-5.11;76.62
39401;SHT31;75540;50.000;7.360;2024-01-11T07:21:12;-5.17;76.38
39401;SHT31;75540;50.000;7.360;2024-01-11T07:23:40;-5.07;76.24
39401;SHT31;75540;50.000;7.360;2024-01-11T07:26:14;-5.08;76.43
39401;SHT31;75540;50.000;7.360;2024-01-11T07:28:42;-5.12;76.29
39401;SHT31;75540;50.000;7.360;2024-01-11T07:31:10;-5.11;76.04
39401;SHT31;75540;50.000;7.360;2024-01-11T07:33:38;-5.12;76.23
39401;SHT31;75540;50.000;7.360;2024-01-11T07:36:08;-5.11;75.98
39401;SHT31;75540;50.000;7.360;2024-01-11T07:38:37;-5.15;76.07
39401;SHT31;75540;50.000;7.360;2024-01-11T07:41:06;-5.50;76.78
39401;SHT31;75540;50.000;7.360;2024-01-11T07:43:34;-5.36;76.57
39401;SHT31;75540;50.000;7.360;2024-01-11T07:46:03;-5.36;76.61
39401;SHT31;75540;50.000;7.360;2024-01-11T07:48:32;-5.43;77.04
39401;SHT31;75540;50.000;7.360;2024-01-11T07:51:01;-5.27;77.01
39401;SHT31;75540;50.000;7.360;2024-01-11T07:53:31;-5.28;76.81
39401;SHT31;75540;50.000;7.360;2024-01-11T07:56:00;-5.05;76.26
39401;SHT31;75540;50.000;7.360;2024-01-11T07:58:28;-4.81;75.30
39401;SHT31;75540;50.000;7.360;2024-01-11T08:00:56;-4.65;74.56
39401;SHT31;75540;50.000;7.360;2024-01-11T08:03:24;-4.52;74.30
39401;SHT31;75540;50.000;7.360;2024-01-11T08:05:54;-4.35;73.34
39401;SHT31;75540;50.000;7.360;2024-01-11T08:08:22;-4.16;72.13
39401;SHT31;75540;50.000;7.360;2024-01-11T08:10:52;-3.88;71.38
39401;SHT31;75540;50.000;7.360;2024-01-11T08:13:21;-3.39;69.97
39401;SHT31;75540;50.000;7.360;2024-01-11T08:15:50;-2.81;67.97
39401;SHT31;75540;50.000;7.360;2024-01-11T08:18:20;-2.23;65.21
39401;SHT31;75540;50.000;7.360;2024-01-11T08:20:48;-1.83;64.08
39401;SHT31;75540;50.000;7.360;2024-01-11T08:23:16;-1.65;62.69
39401;SHT31;75540;50.000;7.360;2024-01-11T08:25:44;-1.31;61.90
39401;SHT31;75540;50.000;7.360;2024-01-11T08:28:15;-0.91;61.07
39401;SHT31;75540;50.000;7.360;2024-01-11T08:30:43;-0.80;60.12
39401;SHT31;75540;50.000;7.360;2024-01-11T08:33:11;-0.50;59.02
39401;SHT31;75540;50.000;7.360;2024-01-11T08:35:40;-0.62;58.68
39401;SHT31;75540;50.000;7.360;2024-01-11T08:38:09;-0.23;58.50
39401;SHT31;75540;50.000;7.360;2024-01-11T08:40:37;0.19;56.54
39401;SHT31;75540;50.000;7.360;2024-01-11T08:43:05;-0.09;56.43
39401;SHT31;75540;50.000;7.360;2024-01-11T08:45:35;1.08;54.71
39401;SHT31;75540;50.000;7.360;2024-01-11T08:48:04;1.44;52.80
39401;SHT31;75540;50.000;7.360;2024-01-11T08:50:33;1.76;51.55
39401;SHT31;75540;50.000;7.360;2024-01-11T08:53:02;2.16;50.56
39401;SHT31;75540;50.000;7.360;2024-01-11T08:55:30;1.75;51.53
39401;SHT31;75540;50.000;7.360;2024-01-11T08:57:59;1.42;53.74
39401;SHT31;75540;50.000;7.360;2024-01-11T09:00:27;1.73;52.06
39401;SHT31;75540;50.000;7.360;2024-01-11T09:02:58;2.13;49.87
39401;SHT31;75540;50.000;7.360;2024-01-11T09:05:26;2.58;49.66
39401;SHT31;75540;50.000;7.360;2024-01-11T09:07:54;1.87;50.36
39401;SHT31;75540;50.000;7.360;2024-01-11T09:10:23;1.90;50.29
39401;SHT31;75540;50.000;7.360;2024-01-11T09:12:51;2.37;50.01
39401;SHT31;75540;50.000;7.360;2024-01-11T09:15:19;1.72;50.09
39401;SHT31;75540;50.000;7.360;2024-01-11T09:17:48;1.60;51.67
39401;SHT31;75540;50.000;7.360;2024-01-11T09:20:18;0.63;53.53
39401;SHT31;75540;50.000;7.360;2024-01-11T09:22:46;0.77;54.70
39401;SHT31;75540;50.000;7.360;2024-01-11T09:25:15;1.05;52.89
39401;SHT31;75540;50.000;7.360;2024-01-11T09:27:43;0.91;53.16
39401;SHT31;75540;50.000;7.360;2024-01-11T09:30:12;0.48;53.72
39401;SHT31;75540;50.000;7.360;2024-01-11T09:32:40;0.32;54.89
39401;SHT31;75540;50.000;7.360;2024-01-11T09:35:08;0.43;54.74
39401;SHT31;75540;50.000;7.360;2024-01-11T09:37:38;0.43;54.88
39401;SHT31;75540;50.000;7.360;2024-01-11T09:40:08;0.52;54.90
39401;SHT31;75540;50.000;7.360;2024-01-11T09:42:37;0.19;55.50
39401;SHT31;75540;50.000;7.360;2024-01-11T09:45:07;-0.02;57.16
39401;SHT31;75540;50.000;7.360;2024-01-11T09:47:37;0.09;56.21
39401;SHT31;75540;50.000;7.360;2024-01-11T09:50:07;0.28;55.95
39401;SHT31;75540;50.000;7.360;2024-01-11T09:52:36;0.42;55.73
39401;SHT31;75540;50.000;7.360;2024-01-11T09:55:07;0.79;54.53
39401;SHT31;75540;50.000;7.360;2024-01-11T09:57:37;1.83;52.65
39401;SHT31;75540;50.000;7.360;2024-01-11T10:00:08;2.10;51.43
39401;SHT31;75540;50.000;7.360;2024-01-11T10:02:37;2.38;50.46
39401;SHT31;75540;50.000;7.360;2024-01-11T10:05:07;2.38;50.19
39401;SHT31;75540;50.000;7.360;2024-01-11T10:07:36;2.54;50.38
39401;SHT31;75540;50.000;7.360;2024-01-11T10:10:07;2.48;50.80
39401;SHT31;75540;50.000;7.360;2024-01-11T10:12:37;2.71;50.60
39401;SHT31;75540;50.000;7.360;2024-01-11T10:15:06;2.57;50.25
39401;SHT31;75540;50.000;7.360;2024-01-11T10:17:36;2.13;50.98
39401;SHT31;75540;50.000;7.360;2024-01-11T10:20:06;2.61;50.78
39401;SHT31;75540;50.000;7.360;2024-01-11T10:22:37;2.13;52.14
39401;SHT31;75540;50.000;7.360;2024-01-11T10:25:12;0.94;53.79
39401;SHT31;75540;50.000;7.360;2024-01-11T10:27:41;1.68;54.33
39401;SHT31;75540;50.000;7.360;2024-01-11T10:30:11;1.20;55.29
39401;SHT31;75540;50.000;7.360;2024-01-11T10:32:43;1.54;54.49
39401;SHT31;75540;50.000;7.360;2024-01-11T10:35:12;1.39;55.34
39401;SHT31;75540;50.000;7.360;2024-01-11T10:37:41;1.55;54.68
39401;SHT31;75540;50.000;7.360;2024-01-11T10:40:12;1.68;54.87
39401;SHT31;75540;50.000;7.360;2024-01-11T10:42:43;2.05;53.66
39401;SHT31;75540;50.000;7.360;2024-01-11T10:45:15;1.98;53.99
39401;SHT31;75540;50.000;7.360;2024-01-11T10:47:50;1.45;54.87
39401;SHT31;75540;50.000;7.360;2024-01-11T10:50:19;1.83;54.37
39401;SHT31;75540;50.000;7.360;2024-01-11T10:53:11;2.44;53.33
39401;SHT31;75540;50.000;7.360;2024-01-11T10:55:42;2.38;52.11
39401;SHT31;75540;50.000;7.360;2024-01-11T10:58:12;2.36;51.56
39401;SHT31;75540;50.000;7.360;2024-01-11T11:00:41;2.45;52.04
39401;SHT31;75540;50.000;7.360;2024-01-11T11:03:11;2.47;52.72
39401;SHT31;75540;50.000;7.360;2024-01-11T11:05:40;2.51;52.55
39401;SHT31;75540;50.000;7.360;2024-01-11T11:08:09;2.91;51.65
39401;SHT31;75540;50.000;7.360;2024-01-11T11:10:39;3.15;51.31
39401;SHT31;75540;50.000;7.360;2024-01-11T11:13:10;3.15;51.55
39401;SHT31;75540;50.000;7.360;2024-01-11T11:15:41;3.09;51.96
39401;SHT31;75540;50.000;7.360;2024-01-11T11:18:11;2.99;51.93
39401;SHT31;75540;50.000;7.360;2024-01-11T11:20:40;3.02;51.82
39401;SHT31;75540;50.000;7.360;2024-01-11T11:23:10;3.67;50.36
39401;SHT31;75540;50.000;7.360;2024-01-11T11:25:40;3.89;50.04
39401;SHT31;75540;50.000;7.360;2024-01-11T11:28:11;3.71;50.13
39401;SHT31;75540;50.000;7.360;2024-01-11T11:30:42;3.38;50.72
39401;SHT31;75540;50.000;7.360;2024-01-11T11:33:10;3.49;50.77
39401;SHT31;75540;50.000;7.360;2024-01-11T11:35:39;3.01;51.27
39401;SHT31;75540;50.000;7.360;2024-01-11T11:38:07;3.83;50.54
39401;SHT31;75540;50.000;7.360;2024-01-11T11:40:37;3.66;50.15
39401;SHT31;75540;50.000;7.360;2024-01-11T11:43:06;3.93;49.78
39401;SHT31;75540;50.000;7.360;2024-01-11T11:45:37;3.95;49.76
39401;SHT31;75540;50.000;7.360;2024-01-11T11:51:08;3.64;50.49
39401;SHT31;75540;50.000;7.360;2024-01-11T11:53:38;3.63;51.24
39401;SHT31;75540;50.000;7.360;2024-01-11T11:56:07;3.62;50.60
39401;SHT31;75540;50.000;7.360;2024-01-11T11:58:36;3.64;50.72
39401;SHT31;75540;50.000;7.360;2024-01-11T12:01:07;3.49;51.39
39401;SHT31;75540;50.000;7.360;2024-01-11T12:03:36;3.20;52.22
39401;SHT31;75540;50.000;7.360;2024-01-11T12:06:06;3.09;52.28
39401;SHT31;75540;50.000;7.360;2024-01-11T12:08:35;3.25;52.27
39401;SHT31;75540;50.000;7.360;2024-01-11T12:11:04;3.01;52.40
39401;SHT31;75540;50.000;7.360;2024-01-11T12:13:33;2.81;53.51
39401;SHT31;75540;50.000;7.360;2024-01-11T12:16:03;2.57;54.10
39401;SHT31;75540;50.000;7.360;2024-01-11T12:18:32;2.67;53.66
39401;SHT31;75540;50.000;7.360;2024-01-11T12:21:01;2.44;54.53
39401;SHT31;75540;50.000;7.360;2024-01-11T12:23:29;2.24;54.47
39401;SHT31;75540;50.000;7.360;2024-01-11T12:25:58;2.40;54.45
39401;SHT31;75540;50.000;7.360;2024-01-11T12:28:26;2.34;53.90
39401;SHT31;75540;50.000;7.360;2024-01-11T12:30:55;2.09;54.42
39401;SHT31;75540;50.000;7.360;2024-01-11T12:33:24;1.96;54.56
39401;SHT31;75540;50.000;7.360;2024-01-11T12:35:54;2.22;54.58
39401;SHT31;75540;50.000;7.360;2024-01-11T12:38:22;1.93;55.03
39401;SHT31;75540;50.000;7.360;2024-01-11T12:40:53;1.96;54.62
39401;SHT31;75540;50.000;7.360;2024-01-11T12:43:21;1.90;55.57
39401;SHT31;75540;50.000;7.360;2024-01-11T12:45:50;1.45;56.00
39401;SHT31;75540;50.000;7.360;2024-01-11T12:48:20;1.62;55.91
39401;SHT31;75540;50.000;7.360;2024-01-11T12:50:49;1.66;55.54
39401;SHT31;75540;50.000;7.360;2024-01-11T12:53:18;1.52;56.35
39401;SHT31;75540;50.000;7.360;2024-01-11T12:55:47;1.65;56.16
39401;SHT31;75540;50.000;7.360;2024-01-11T12:58:20;1.35;56.72
39401;SHT31;75540;50.000;7.360;2024-01-11T13:00:48;1.68;56.52
39401;SHT31;75540;50.000;7.360;2024-01-11T13:03:17;1.38;56.94
39401;SHT31;75540;50.000;7.360;2024-01-11T13:05:47;1.56;56.73
39401;SHT31;75540;50.000;7.360;2024-01-11T13:08:15;1.35;56.79
39401;SHT31;75540;50.000;7.360;2024-01-11T13:10:45;1.13;57.96
39401;SHT31;75540;50.000;7.360;2024-01-11T13:13:14;1.30;59.51
39401;SHT31;75540;50.000;7.360;2024-01-11T13:15:42;1.24;58.30
39401;SHT31;75540;50.000;7.360;2024-01-11T13:18:11;0.73;58.41
39401;SHT31;75540;50.000;7.360;2024-01-11T13:20:39;1.04;57.84
39401;SHT31;75540;50.000;7.360;2024-01-11T13:23:12;1.09;57.69
39401;SHT31;75540;50.000;7.360;2024-01-11T13:25:41;1.00;57.87
39401;SHT31;75540;50.000;7.360;2024-01-11T13:28:11;0.81;58.26
39401;SHT31;75540;50.000;7.360;2024-01-11T13:30:40;0.64;58.54
39401;SHT31;75540;50.000;7.360;2024-01-11T13:33:10;0.80;58.75
39401;SHT31;75540;50.000;7.360;2024-01-11T13:35:39;0.56;58.85
39401;SHT31;75540;50.000;7.360;2024-01-11T13:38:08;0.67;58.65
39401;SHT31;75540;50.000;7.360;2024-01-11T13:40:36;0.48;58.49
39401;SHT31;75540;50.000;7.360;2024-01-11T13:43:06;0.73;58.40
39401;SHT31;75540;50.000;7.360;2024-01-11T13:45:36;0.39;58.69
39401;SHT31;75540;50.000;7.360;2024-01-11T13:48:05;0.59;58.38
39401;SHT31;75540;50.000;7.360;2024-01-11T13:50:34;0.42;58.79
39401;SHT31;75540;50.000;7.360;2024-01-11T13:53:02;0.35;58.72
39401;SHT31;75540;50.000;7.360;2024-01-11T13:55:31;0.62;58.11
39401;SHT31;75540;50.000;7.360;2024-01-11T13:58:04;0.64;58.22
39401;SHT31;75540;50.000;7.360;2024-01-11T14:00:32;0.53;58.52
39401;SHT31;75540;50.000;7.360;2024-01-11T14:03:02;0.43;58.13
39401;SHT31;75540;50.000;7.360;2024-01-11T14:05:33;0.42;59.36
39401;SHT31;75540;50.000;7.360;2024-01-11T14:08:02;0.41;59.05
39401;SHT31;75540;50.000;7.360;2024-01-11T14:10:32;0.64;58.24
39401;SHT31;75540;50.000;7.360;2024-01-11T14:13:01;0.60;58.48
39401;SHT31;75540;50.000;7.360;2024-01-11T14:15:29;0.54;58.30
39401;SHT31;75540;50.000;7.360;2024-01-11T14:17:58;0.38;58.80
39401;SHT31;75540;50.000;7.360;2024-01-11T14:20:27;0.52;58.11
39401;SHT31;75540;50.000;7.360;2024-01-11T14:22:56;0.64;57.83
39401;SHT31;75540;50.000;7.360;2024-01-11T14:25:26;0.52;57.71
39401;SHT31;75540;50.000;7.360;2024-01-11T14:27:56;0.38;57.42
39401;SHT31;75540;50.000;7.360;2024-01-11T14:30:25;0.60;57.13
39401;SHT31;75540;50.000;7.360;2024-01-11T14:32:53;0.49;56.82
39401;SHT31;75540;50.000;7.360;2024-01-11T14:35:22;0.54;56.21
39401;SHT31;75540;50.000;7.360;2024-01-11T14:37:51;0.48;56.09
39401;SHT31;75540;50.000;7.360;2024-01-11T14:40:20;0.35;55.95
39401;SHT31;75540;50.000;7.360;2024-01-11T14:42:48;0.32;56.18
39401;SHT31;75540;50.000;7.360;2024-01-11T14:45:17;0.32;56.82
39401;SHT31;75540;50.000;7.360;2024-01-11T14:47:45;0.50;56.90
39401;SHT31;75540;50.000;7.360;2024-01-11T14:50:15;0.43;57.25
39401;SHT31;75540;50.000;7.360;2024-01-11T14:52:43;0.23;57.56
39401;SHT31;75540;50.000;7.360;2024-01-11T14:55:14;0.30;57.75
39401;SHT31;75540;50.000;7.360;2024-01-11T14:57:43;0.13;58.04
39401;SHT31;75540;50.000;7.360;2024-01-11T15:00:12;0.15;58.10
39401;SHT31;75540;50.000;7.360;2024-01-11T15:02:41;0.19;58.43
39401;SHT31;75540;50.000;7.360;2024-01-11T15:05:11;0.08;58.19
39401;SHT31;75540;50.000;7.360;2024-01-11T15:07:40;-0.01;58.97
39401;SHT31;75540;50.000;7.360;2024-01-11T15:10:09;-0.15;59.04
39401;SHT31;75540;50.000;7.360;2024-01-11T15:12:38;-0.13;59.79
39401;SHT31;75540;50.000;7.360;2024-01-11T15:15:08;-0.26;59.87
39401;SHT31;75540;50.000;7.360;2024-01-11T15:17:37;-0.23;60.40
39401;SHT31;75540;50.000;7.360;2024-01-11T15:20:07;-0.19;60.26
39401;SHT31;75540;50.000;7.360;2024-01-11T15:22:35;-0.22;60.27
39401;SHT31;75540;50.000;7.360;2024-01-11T15:25:04;-0.46;60.74
39401;SHT31;75540;50.000;7.360;2024-01-11T15:27:32;-0.30;60.59
39401;SHT31;75540;50.000;7.360;2024-01-11T15:30:03;-0.33;60.48
39401;SHT31;75540;50.000;7.360;2024-01-11T15:32:31;-0.52;60.94
39401;SHT31;75540;50.000;7.360;2024-01-11T15:34:59;-0.50;61.22
39401;SHT31;75540;50.000;7.360;2024-01-11T15:37:27;-0.54;61.47
39401;SHT31;75540;50.000;7.360;2024-01-11T15:39:57;-0.80;61.93
39401;SHT31;75540;50.000;7.360;2024-01-11T15:42:26;-1.00;62.52
39401;SHT31;75540;50.000;7.360;2024-01-11T15:44:54;-1.21;63.36
39401;SHT31;75540;50.000;7.360;2024-01-11T15:47:25;-1.19;63.39
39401;SHT31;75540;50.000;7.360;2024-01-11T15:49:54;-1.18;63.83